Weather at Félix-Houphouët-Boigny International Airport

Public forecast

Using degrees Celsius for public forecast. Weather courtesy of forecast.io.

Current aviation weather report (METAR) for Félix-Houphouët-Boigny International Airport

Report is more than 6 hours old.

Retrieved 2022/09/17 19:00 UTC (8 days ago):

DIAP 171900Z 22007KT 9999 SCT012 25/25 Q1011 NOSIG

Aviation forecast (TAF) for Félix-Houphouët-Boigny International Airport

Forecast is more than 12 hours old.

Retrieved 2022/09/17 18:14 UTC (8 days ago):

TAF DIAP 171755Z 1718/1824 23006KT 9999 SCT012 PROB30 TEMPO 1802/1806 BKN012 TEMPO 1820/1824 4000 RA BKN012